sensor_id;sensor_type;location;lat;lon;timestamp;P1;durP1;ratioP1;P2;durP2;ratioP2
17171;SDS011;8701;50.150;8.756;2022-12-18T00:02:19;22.50;;;9.70;;
17171;SDS011;8701;50.150;8.756;2022-12-18T00:06:22;15.07;;;7.53;;
17171;SDS011;8701;50.150;8.756;2022-12-18T00:10:26;17.83;;;8.47;;
17171;SDS011;8701;50.150;8.756;2022-12-18T00:14:30;16.87;;;7.80;;
17171;SDS011;8701;50.150;8.756;2022-12-18T00:18:33;16.77;;;7.70;;
17171;SDS011;8701;50.150;8.756;2022-12-18T00:22:37;17.57;;;8.20;;
17171;SDS011;8701;50.150;8.756;2022-12-18T00:26:41;17.80;;;7.90;;
17171;SDS011;8701;50.150;8.756;2022-12-18T00:30:47;16.53;;;8.23;;
17171;SDS011;8701;50.150;8.756;2022-12-18T00:34:52;17.50;;;8.67;;
17171;SDS011;8701;50.150;8.756;2022-12-18T00:38:55;22.27;;;8.60;;
17171;SDS011;8701;50.150;8.756;2022-12-18T00:43:01;15.63;;;7.93;;
17171;SDS011;8701;50.150;8.756;2022-12-18T00:47:08;19.07;;;8.47;;
17171;SDS011;8701;50.150;8.756;2022-12-18T00:51:13;19.47;;;8.50;;
17171;SDS011;8701;50.150;8.756;2022-12-18T00:55:16;19.03;;;8.60;;
17171;SDS011;8701;50.150;8.756;2022-12-18T00:59:21;17.50;;;8.57;;
17171;SDS011;8701;50.150;8.756;2022-12-18T01:03:26;20.23;;;9.00;;
17171;SDS011;8701;50.150;8.756;2022-12-18T01:07:28;15.80;;;7.77;;
17171;SDS011;8701;50.150;8.756;2022-12-18T01:11:31;24.00;;;9.60;;
17171;SDS011;8701;50.150;8.756;2022-12-18T01:15:34;21.83;;;8.63;;
17171;SDS011;8701;50.150;8.756;2022-12-18T01:19:39;18.57;;;8.37;;
17171;SDS011;8701;50.150;8.756;2022-12-18T01:23:42;20.40;;;8.70;;
17171;SDS011;8701;50.150;8.756;2022-12-18T01:27:46;20.53;;;7.93;;
17171;SDS011;8701;50.150;8.756;2022-12-18T01:31:48;16.70;;;8.40;;
17171;SDS011;8701;50.150;8.756;2022-12-18T01:35:53;17.23;;;8.30;;
17171;SDS011;8701;50.150;8.756;2022-12-18T01:39:55;13.40;;;7.03;;
17171;SDS011;8701;50.150;8.756;2022-12-18T01:43:58;20.40;;;7.53;;
17171;SDS011;8701;50.150;8.756;2022-12-18T01:48:01;12.40;;;6.80;;
17171;SDS011;8701;50.150;8.756;2022-12-18T01:52:08;13.93;;;7.00;;
17171;SDS011;8701;50.150;8.756;2022-12-18T01:56:12;14.23;;;6.57;;
17171;SDS011;8701;50.150;8.756;2022-12-18T02:00:17;15.87;;;6.50;;
17171;SDS011;8701;50.150;8.756;2022-12-18T02:04:21;13.70;;;7.00;;
17171;SDS011;8701;50.150;8.756;2022-12-18T02:08:29;11.87;;;6.80;;
17171;SDS011;8701;50.150;8.756;2022-12-18T02:12:39;14.30;;;7.10;;
17171;SDS011;8701;50.150;8.756;2022-12-18T02:16:48;12.23;;;6.70;;
17171;SDS011;8701;50.150;8.756;2022-12-18T02:20:58;12.90;;;7.50;;
17171;SDS011;8701;50.150;8.756;2022-12-18T02:25:11;14.37;;;7.07;;
17171;SDS011;8701;50.150;8.756;2022-12-18T02:29:25;14.40;;;6.50;;
17171;SDS011;8701;50.150;8.756;2022-12-18T02:33:31;16.07;;;7.20;;
17171;SDS011;8701;50.150;8.756;2022-12-18T02:37:36;12.27;;;6.83;;
17171;SDS011;8701;50.150;8.756;2022-12-18T02:41:41;15.87;;;7.20;;
17171;SDS011;8701;50.150;8.756;2022-12-18T02:45:49;15.63;;;6.70;;
17171;SDS011;8701;50.150;8.756;2022-12-18T02:49:56;13.83;;;7.80;;
17171;SDS011;8701;50.150;8.756;2022-12-18T02:54:08;13.70;;;7.10;;
17171;SDS011;8701;50.150;8.756;2022-12-18T02:58:20;16.27;;;6.50;;
17171;SDS011;8701;50.150;8.756;2022-12-18T03:02:37;15.80;;;7.90;;
17171;SDS011;8701;50.150;8.756;2022-12-18T03:06:46;14.10;;;7.40;;
17171;SDS011;8701;50.150;8.756;2022-12-18T03:10:53;19.67;;;8.90;;
17171;SDS011;8701;50.150;8.756;2022-12-18T03:15:01;15.90;;;7.80;;
17171;SDS011;8701;50.150;8.756;2022-12-18T03:19:08;19.17;;;8.40;;
17171;SDS011;8701;50.150;8.756;2022-12-18T03:23:16;16.10;;;8.03;;
17171;SDS011;8701;50.150;8.756;2022-12-18T03:27:23;16.77;;;7.73;;
17171;SDS011;8701;50.150;8.756;2022-12-18T03:31:30;20.33;;;8.40;;
17171;SDS011;8701;50.150;8.756;2022-12-18T03:35:40;18.37;;;8.10;;
17171;SDS011;8701;50.150;8.756;2022-12-18T03:39:45;18.57;;;8.47;;
17171;SDS011;8701;50.150;8.756;2022-12-18T03:43:49;18.17;;;7.27;;
17171;SDS011;8701;50.150;8.756;2022-12-18T03:47:58;18.33;;;7.70;;
17171;SDS011;8701;50.150;8.756;2022-12-18T03:52:09;18.90;;;8.07;;
17171;SDS011;8701;50.150;8.756;2022-12-18T03:56:15;19.40;;;7.47;;
17171;SDS011;8701;50.150;8.756;2022-12-18T04:00:20;15.53;;;7.53;;
17171;SDS011;8701;50.150;8.756;2022-12-18T04:04:34;17.60;;;8.30;;
17171;SDS011;8701;50.150;8.756;2022-12-18T04:08:40;15.80;;;7.73;;
17171;SDS011;8701;50.150;8.756;2022-12-18T04:12:46;21.37;;;9.10;;
17171;SDS011;8701;50.150;8.756;2022-12-18T04:16:49;20.93;;;9.43;;
17171;SDS011;8701;50.150;8.756;2022-12-18T04:20:55;19.47;;;8.00;;
17171;SDS011;8701;50.150;8.756;2022-12-18T04:24:59;22.90;;;9.30;;
17171;SDS011;8701;50.150;8.756;2022-12-18T04:29:09;19.40;;;8.17;;
17171;SDS011;8701;50.150;8.756;2022-12-18T04:33:12;19.60;;;8.43;;
17171;SDS011;8701;50.150;8.756;2022-12-18T04:37:18;16.80;;;8.37;;
17171;SDS011;8701;50.150;8.756;2022-12-18T04:41:23;15.43;;;7.63;;
17171;SDS011;8701;50.150;8.756;2022-12-18T04:45:27;22.00;;;7.40;;
17171;SDS011;8701;50.150;8.756;2022-12-18T04:49:29;15.63;;;7.17;;
17171;SDS011;8701;50.150;8.756;2022-12-18T04:53:32;17.50;;;7.80;;
17171;SDS011;8701;50.150;8.756;2022-12-18T04:57:35;18.70;;;7.73;;
17171;SDS011;8701;50.150;8.756;2022-12-18T05:01:38;16.57;;;6.80;;
17171;SDS011;8701;50.150;8.756;2022-12-18T05:05:40;18.63;;;8.27;;
17171;SDS011;8701;50.150;8.756;2022-12-18T05:09:42;13.37;;;7.03;;
17171;SDS011;8701;50.150;8.756;2022-12-18T05:13:46;17.70;;;8.30;;
17171;SDS011;8701;50.150;8.756;2022-12-18T05:17:48;14.67;;;7.20;;
17171;SDS011;8701;50.150;8.756;2022-12-18T05:21:50;15.87;;;7.47;;
17171;SDS011;8701;50.150;8.756;2022-12-18T05:25:53;11.50;;;6.23;;
17171;SDS011;8701;50.150;8.756;2022-12-18T05:29:57;18.37;;;6.80;;
17171;SDS011;8701;50.150;8.756;2022-12-18T05:33:59;15.03;;;6.67;;
17171;SDS011;8701;50.150;8.756;2022-12-18T05:38:01;15.17;;;7.40;;
17171;SDS011;8701;50.150;8.756;2022-12-18T05:42:04;15.07;;;7.77;;
17171;SDS011;8701;50.150;8.756;2022-12-18T05:46:08;17.50;;;8.00;;
17171;SDS011;8701;50.150;8.756;2022-12-18T05:50:13;13.60;;;6.90;;
17171;SDS011;8701;50.150;8.756;2022-12-18T05:54:16;14.70;;;6.87;;
17171;SDS011;8701;50.150;8.756;2022-12-18T05:58:18;12.80;;;6.60;;
17171;SDS011;8701;50.150;8.756;2022-12-18T06:02:21;10.60;;;6.23;;
17171;SDS011;8701;50.150;8.756;2022-12-18T06:06:24;15.30;;;7.10;;
17171;SDS011;8701;50.150;8.756;2022-12-18T06:10:29;17.17;;;7.27;;
17171;SDS011;8701;50.150;8.756;2022-12-18T06:14:31;14.80;;;7.50;;
17171;SDS011;8701;50.150;8.756;2022-12-18T06:18:35;14.60;;;6.90;;
17171;SDS011;8701;50.150;8.756;2022-12-18T06:22:37;10.13;;;6.03;;
17171;SDS011;8701;50.150;8.756;2022-12-18T06:26:39;13.43;;;7.17;;
17171;SDS011;8701;50.150;8.756;2022-12-18T06:30:42;16.77;;;7.80;;
17171;SDS011;8701;50.150;8.756;2022-12-18T06:34:46;16.73;;;7.60;;
17171;SDS011;8701;50.150;8.756;2022-12-18T06:38:49;15.97;;;7.63;;
17171;SDS011;8701;50.150;8.756;2022-12-18T06:42:51;13.80;;;6.93;;
17171;SDS011;8701;50.150;8.756;2022-12-18T06:46:53;17.67;;;7.70;;
17171;SDS011;8701;50.150;8.756;2022-12-18T06:50:58;17.07;;;7.90;;
17171;SDS011;8701;50.150;8.756;2022-12-18T06:55:00;12.77;;;7.17;;
17171;SDS011;8701;50.150;8.756;2022-12-18T06:59:03;14.40;;;7.17;;
17171;SDS011;8701;50.150;8.756;2022-12-18T07:03:05;20.50;;;8.30;;
17171;SDS011;8701;50.150;8.756;2022-12-18T07:07:09;17.50;;;7.83;;
17171;SDS011;8701;50.150;8.756;2022-12-18T07:11:11;12.33;;;6.83;;
17171;SDS011;8701;50.150;8.756;2022-12-18T07:15:15;16.90;;;7.80;;
17171;SDS011;8701;50.150;8.756;2022-12-18T07:19:18;15.60;;;7.23;;
17171;SDS011;8701;50.150;8.756;2022-12-18T07:23:21;16.27;;;6.90;;
17171;SDS011;8701;50.150;8.756;2022-12-18T07:27:24;17.23;;;7.20;;
17171;SDS011;8701;50.150;8.756;2022-12-18T07:31:26;18.40;;;8.27;;
17171;SDS011;8701;50.150;8.756;2022-12-18T07:35:29;14.60;;;7.70;;
17171;SDS011;8701;50.150;8.756;2022-12-18T07:39:32;17.20;;;7.73;;
17171;SDS011;8701;50.150;8.756;2022-12-18T07:43:35;15.00;;;7.87;;
17171;SDS011;8701;50.150;8.756;2022-12-18T07:47:38;14.17;;;7.07;;
17171;SDS011;8701;50.150;8.756;2022-12-18T07:51:41;17.27;;;7.70;;
17171;SDS011;8701;50.150;8.756;2022-12-18T07:55:47;16.67;;;8.30;;
17171;SDS011;8701;50.150;8.756;2022-12-18T07:59:50;14.27;;;7.20;;
17171;SDS011;8701;50.150;8.756;2022-12-18T08:03:52;17.73;;;7.53;;
17171;SDS011;8701;50.150;8.756;2022-12-18T08:07:54;17.60;;;7.93;;
17171;SDS011;8701;50.150;8.756;2022-12-18T08:11:59;12.80;;;6.77;;
17171;SDS011;8701;50.150;8.756;2022-12-18T08:16:02;18.50;;;7.47;;
17171;SDS011;8701;50.150;8.756;2022-12-18T08:20:07;21.07;;;8.17;;
17171;SDS011;8701;50.150;8.756;2022-12-18T08:24:10;20.60;;;8.37;;
17171;SDS011;8701;50.150;8.756;2022-12-18T08:28:13;18.97;;;8.60;;
17171;SDS011;8701;50.150;8.756;2022-12-18T08:32:20;16.60;;;8.60;;
17171;SDS011;8701;50.150;8.756;2022-12-18T08:36:22;17.57;;;8.50;;
17171;SDS011;8701;50.150;8.756;2022-12-18T08:40:25;14.67;;;7.27;;
17171;SDS011;8701;50.150;8.756;2022-12-18T08:44:29;22.93;;;8.83;;
17171;SDS011;8701;50.150;8.756;2022-12-18T08:48:40;17.83;;;8.37;;
17171;SDS011;8701;50.150;8.756;2022-12-18T08:52:42;19.87;;;9.47;;
17171;SDS011;8701;50.150;8.756;2022-12-18T08:56:44;18.90;;;9.80;;
17171;SDS011;8701;50.150;8.756;2022-12-18T09:00:48;17.57;;;9.30;;
17171;SDS011;8701;50.150;8.756;2022-12-18T09:04:50;17.27;;;8.43;;
17171;SDS011;8701;50.150;8.756;2022-12-18T09:08:52;17.53;;;7.90;;
17171;SDS011;8701;50.150;8.756;2022-12-18T09:12:55;16.07;;;7.80;;
17171;SDS011;8701;50.150;8.756;2022-12-18T09:16:59;20.23;;;10.43;;
17171;SDS011;8701;50.150;8.756;2022-12-18T09:21:07;19.70;;;8.80;;
17171;SDS011;8701;50.150;8.756;2022-12-18T09:25:10;17.17;;;9.10;;
17171;SDS011;8701;50.150;8.756;2022-12-18T09:29:14;21.30;;;9.63;;
17171;SDS011;8701;50.150;8.756;2022-12-18T09:33:18;23.93;;;10.90;;
17171;SDS011;8701;50.150;8.756;2022-12-18T09:37:21;20.67;;;10.97;;
17171;SDS011;8701;50.150;8.756;2022-12-18T09:41:33;21.80;;;11.23;;
17171;SDS011;8701;50.150;8.756;2022-12-18T09:45:49;20.77;;;10.33;;
17171;SDS011;8701;50.150;8.756;2022-12-18T09:49:58;25.20;;;12.80;;
17171;SDS011;8701;50.150;8.756;2022-12-18T09:54:06;25.73;;;12.60;;
17171;SDS011;8701;50.150;8.756;2022-12-18T09:58:19;21.97;;;12.30;;
17171;SDS011;8701;50.150;8.756;2022-12-18T10:02:26;24.57;;;13.00;;
17171;SDS011;8701;50.150;8.756;2022-12-18T10:06:35;26.27;;;12.00;;
17171;SDS011;8701;50.150;8.756;2022-12-18T10:10:43;23.57;;;13.07;;
17171;SDS011;8701;50.150;8.756;2022-12-18T10:14:50;27.10;;;13.50;;
17171;SDS011;8701;50.150;8.756;2022-12-18T10:19:01;27.23;;;13.53;;
17171;SDS011;8701;50.150;8.756;2022-12-18T10:23:14;26.03;;;13.13;;
17171;SDS011;8701;50.150;8.756;2022-12-18T10:27:22;32.40;;;14.80;;
17171;SDS011;8701;50.150;8.756;2022-12-18T10:31:26;29.83;;;14.33;;
17171;SDS011;8701;50.150;8.756;2022-12-18T10:35:28;30.30;;;13.30;;
17171;SDS011;8701;50.150;8.756;2022-12-18T10:39:32;29.00;;;13.20;;
17171;SDS011;8701;50.150;8.756;2022-12-18T10:43:35;24.10;;;12.90;;
17171;SDS011;8701;50.150;8.756;2022-12-18T10:47:41;33.93;;;14.47;;
17171;SDS011;8701;50.150;8.756;2022-12-18T10:51:46;25.77;;;13.30;;
17171;SDS011;8701;50.150;8.756;2022-12-18T10:55:50;28.70;;;13.87;;
17171;SDS011;8701;50.150;8.756;2022-12-18T10:59:56;29.13;;;14.13;;
17171;SDS011;8701;50.150;8.756;2022-12-18T11:04:00;28.23;;;14.80;;
17171;SDS011;8701;50.150;8.756;2022-12-18T11:08:18;31.77;;;14.87;;
17171;SDS011;8701;50.150;8.756;2022-12-18T11:12:24;33.03;;;14.47;;
17171;SDS011;8701;50.150;8.756;2022-12-18T11:16:33;28.57;;;13.80;;
17171;SDS011;8701;50.150;8.756;2022-12-18T11:20:43;30.87;;;15.20;;
17171;SDS011;8701;50.150;8.756;2022-12-18T11:25:01;34.00;;;15.23;;
17171;SDS011;8701;50.150;8.756;2022-12-18T11:29:09;30.33;;;14.60;;
17171;SDS011;8701;50.150;8.756;2022-12-18T11:33:19;29.77;;;15.83;;
17171;SDS011;8701;50.150;8.756;2022-12-18T11:37:25;31.90;;;15.80;;
17171;SDS011;8701;50.150;8.756;2022-12-18T11:41:32;31.57;;;16.40;;
17171;SDS011;8701;50.150;8.756;2022-12-18T11:46:00;33.63;;;16.37;;
17171;SDS011;8701;50.150;8.756;2022-12-18T11:50:10;32.97;;;16.17;;
17171;SDS011;8701;50.150;8.756;2022-12-18T11:54:17;32.73;;;17.20;;
17171;SDS011;8701;50.150;8.756;2022-12-18T11:58:26;32.53;;;16.60;;
17171;SDS011;8701;50.150;8.756;2022-12-18T12:02:48;37.83;;;17.10;;
17171;SDS011;8701;50.150;8.756;2022-12-18T12:07:13;32.47;;;16.07;;
17171;SDS011;8701;50.150;8.756;2022-12-18T12:11:29;30.53;;;15.60;;
17171;SDS011;8701;50.150;8.756;2022-12-18T12:15:42;32.90;;;15.50;;
17171;SDS011;8701;50.150;8.756;2022-12-18T12:19:56;31.37;;;16.33;;
17171;SDS011;8701;50.150;8.756;2022-12-18T12:24:07;31.37;;;15.27;;
17171;SDS011;8701;50.150;8.756;2022-12-18T12:28:22;34.67;;;15.53;;
17171;SDS011;8701;50.150;8.756;2022-12-18T12:32:44;32.87;;;15.17;;
17171;SDS011;8701;50.150;8.756;2022-12-18T12:36:57;32.80;;;14.63;;
17171;SDS011;8701;50.150;8.756;2022-12-18T12:41:09;27.73;;;14.40;;
17171;SDS011;8701;50.150;8.756;2022-12-18T12:45:30;32.67;;;14.60;;
17171;SDS011;8701;50.150;8.756;2022-12-18T12:49:38;31.77;;;14.63;;
17171;SDS011;8701;50.150;8.756;2022-12-18T12:53:49;34.80;;;14.80;;
17171;SDS011;8701;50.150;8.756;2022-12-18T12:58:03;33.13;;;15.03;;
17171;SDS011;8701;50.150;8.756;2022-12-18T13:02:14;27.90;;;12.53;;
17171;SDS011;8701;50.150;8.756;2022-12-18T13:06:28;33.10;;;15.60;;
17171;SDS011;8701;50.150;8.756;2022-12-18T13:10:40;27.80;;;14.20;;
17171;SDS011;8701;50.150;8.756;2022-12-18T13:14:44;30.40;;;14.47;;
17171;SDS011;8701;50.150;8.756;2022-12-18T13:18:50;28.67;;;13.60;;
17171;SDS011;8701;50.150;8.756;2022-12-18T13:22:55;33.47;;;15.23;;
17171;SDS011;8701;50.150;8.756;2022-12-18T13:26:59;28.80;;;14.20;;
17171;SDS011;8701;50.150;8.756;2022-12-18T13:31:01;26.43;;;13.10;;
17171;SDS011;8701;50.150;8.756;2022-12-18T13:39:46;26.50;;;13.00;;
17171;SDS011;8701;50.150;8.756;2022-12-18T13:43:51;30.73;;;13.83;;
17171;SDS011;8701;50.150;8.756;2022-12-18T13:47:54;29.83;;;12.87;;
17171;SDS011;8701;50.150;8.756;2022-12-18T13:51:57;28.37;;;13.63;;
17171;SDS011;8701;50.150;8.756;2022-12-18T13:55:59;25.57;;;11.83;;
17171;SDS011;8701;50.150;8.756;2022-12-18T14:04:32;31.93;;;13.03;;
17171;SDS011;8701;50.150;8.756;2022-12-18T14:12:50;28.83;;;12.30;;
17171;SDS011;8701;50.150;8.756;2022-12-18T14:17:03;32.83;;;13.17;;
17171;SDS011;8701;50.150;8.756;2022-12-18T14:21:23;27.17;;;13.90;;
17171;SDS011;8701;50.150;8.756;2022-12-18T14:25:33;33.73;;;13.10;;
17171;SDS011;8701;50.150;8.756;2022-12-18T14:29:35;26.43;;;12.90;;
17171;SDS011;8701;50.150;8.756;2022-12-18T14:33:38;27.50;;;12.77;;
17171;SDS011;8701;50.150;8.756;2022-12-18T14:37:42;27.73;;;12.63;;
17171;SDS011;8701;50.150;8.756;2022-12-18T14:41:44;25.97;;;13.07;;
17171;SDS011;8701;50.150;8.756;2022-12-18T14:45:47;28.27;;;13.50;;
17171;SDS011;8701;50.150;8.756;2022-12-18T14:49:52;31.37;;;13.83;;
17171;SDS011;8701;50.150;8.756;2022-12-18T14:53:55;37.20;;;14.60;;
17171;SDS011;8701;50.150;8.756;2022-12-18T14:58:01;25.97;;;12.60;;
17171;SDS011;8701;50.150;8.756;2022-12-18T15:02:09;34.57;;;14.37;;
17171;SDS011;8701;50.150;8.756;2022-12-18T15:06:27;30.07;;;14.57;;
17171;SDS011;8701;50.150;8.756;2022-12-18T15:10:32;27.93;;;13.33;;
17171;SDS011;8701;50.150;8.756;2022-12-18T15:14:38;31.50;;;13.50;;
17171;SDS011;8701;50.150;8.756;2022-12-18T15:18:42;35.80;;;14.20;;
17171;SDS011;8701;50.150;8.756;2022-12-18T15:22:55;30.37;;;13.80;;
17171;SDS011;8701;50.150;8.756;2022-12-18T15:26:59;27.07;;;12.40;;
17171;SDS011;8701;50.150;8.756;2022-12-18T15:31:04;29.10;;;12.70;;
17171;SDS011;8701;50.150;8.756;2022-12-18T15:35:23;29.90;;;14.40;;
17171;SDS011;8701;50.150;8.756;2022-12-18T15:39:28;30.20;;;13.40;;
17171;SDS011;8701;50.150;8.756;2022-12-18T15:43:33;29.50;;;14.30;;
17171;SDS011;8701;50.150;8.756;2022-12-18T15:47:41;32.33;;;13.37;;
17171;SDS011;8701;50.150;8.756;2022-12-18T15:51:44;28.37;;;13.30;;
17171;SDS011;8701;50.150;8.756;2022-12-18T15:55:51;28.30;;;13.57;;
17171;SDS011;8701;50.150;8.756;2022-12-18T16:00:13;28.63;;;14.17;;
17171;SDS011;8701;50.150;8.756;2022-12-18T16:04:24;29.87;;;14.57;;
17171;SDS011;8701;50.150;8.756;2022-12-18T16:08:26;27.90;;;13.57;;
17171;SDS011;8701;50.150;8.756;2022-12-18T16:12:31;25.70;;;12.97;;
17171;SDS011;8701;50.150;8.756;2022-12-18T16:17:41;26.10;;;12.37;;
17171;SDS011;8701;50.150;8.756;2022-12-18T16:21:53;22.73;;;10.63;;
17171;SDS011;8701;50.150;8.756;2022-12-18T16:25:58;25.00;;;12.63;;
17171;SDS011;8701;50.150;8.756;2022-12-18T16:30:02;25.00;;;12.77;;
17171;SDS011;8701;50.150;8.756;2022-12-18T16:34:12;26.13;;;12.27;;
17171;SDS011;8701;50.150;8.756;2022-12-18T16:38:16;27.97;;;12.03;;
17171;SDS011;8701;50.150;8.756;2022-12-18T16:42:19;31.23;;;15.20;;
17171;SDS011;8701;50.150;8.756;2022-12-18T16:46:23;32.53;;;16.80;;
17171;SDS011;8701;50.150;8.756;2022-12-18T16:50:26;28.13;;;13.80;;
17171;SDS011;8701;50.150;8.756;2022-12-18T16:54:28;25.93;;;14.40;;
17171;SDS011;8701;50.150;8.756;2022-12-18T16:58:30;23.77;;;12.67;;
17171;SDS011;8701;50.150;8.756;2022-12-18T17:02:34;27.03;;;13.60;;
17171;SDS011;8701;50.150;8.756;2022-12-18T17:06:44;32.00;;;15.17;;
17171;SDS011;8701;50.150;8.756;2022-12-18T17:10:51;45.13;;;18.23;;
17171;SDS011;8701;50.150;8.756;2022-12-18T17:14:53;27.30;;;13.60;;
17171;SDS011;8701;50.150;8.756;2022-12-18T17:18:57;27.13;;;13.20;;
17171;SDS011;8701;50.150;8.756;2022-12-18T17:22:59;30.90;;;13.47;;
17171;SDS011;8701;50.150;8.756;2022-12-18T17:27:02;23.90;;;13.03;;
17171;SDS011;8701;50.150;8.756;2022-12-18T17:31:09;27.87;;;13.80;;
17171;SDS011;8701;50.150;8.756;2022-12-18T17:35:13;29.00;;;13.63;;
17171;SDS011;8701;50.150;8.756;2022-12-18T17:39:17;28.40;;;13.10;;
17171;SDS011;8701;50.150;8.756;2022-12-18T17:43:21;28.40;;;13.07;;
17171;SDS011;8701;50.150;8.756;2022-12-18T17:47:23;27.73;;;13.67;;
17171;SDS011;8701;50.150;8.756;2022-12-18T17:51:27;26.77;;;13.50;;
17171;SDS011;8701;50.150;8.756;2022-12-18T17:55:30;31.40;;;13.37;;
17171;SDS011;8701;50.150;8.756;2022-12-18T17:59:32;32.90;;;13.27;;
17171;SDS011;8701;50.150;8.756;2022-12-18T18:03:34;24.97;;;13.37;;
17171;SDS011;8701;50.150;8.756;2022-12-18T18:07:39;24.33;;;12.87;;
17171;SDS011;8701;50.150;8.756;2022-12-18T18:11:42;25.37;;;12.73;;
17171;SDS011;8701;50.150;8.756;2022-12-18T18:16:01;28.70;;;13.50;;
17171;SDS011;8701;50.150;8.756;2022-12-18T18:20:04;30.23;;;14.40;;
17171;SDS011;8701;50.150;8.756;2022-12-18T18:24:10;31.33;;;13.83;;
17171;SDS011;8701;50.150;8.756;2022-12-18T18:28:16;32.50;;;13.30;;
17171;SDS011;8701;50.150;8.756;2022-12-18T18:32:18;27.73;;;13.63;;
17171;SDS011;8701;50.150;8.756;2022-12-18T18:36:22;27.33;;;14.00;;
17171;SDS011;8701;50.150;8.756;2022-12-18T18:40:27;31.00;;;14.40;;
17171;SDS011;8701;50.150;8.756;2022-12-18T18:44:30;31.40;;;14.57;;
17171;SDS011;8701;50.150;8.756;2022-12-18T18:48:33;26.60;;;13.60;;
17171;SDS011;8701;50.150;8.756;2022-12-18T18:52:37;30.40;;;15.00;;
17171;SDS011;8701;50.150;8.756;2022-12-18T18:56:41;27.83;;;14.50;;
17171;SDS011;8701;50.150;8.756;2022-12-18T19:00:43;27.20;;;13.53;;
17171;SDS011;8701;50.150;8.756;2022-12-18T19:04:45;27.27;;;12.77;;
17171;SDS011;8701;50.150;8.756;2022-12-18T19:08:48;25.00;;;12.27;;
17171;SDS011;8701;50.150;8.756;2022-12-18T19:12:54;26.73;;;12.80;;
17171;SDS011;8701;50.150;8.756;2022-12-18T19:17:18;31.27;;;13.40;;
17171;SDS011;8701;50.150;8.756;2022-12-18T19:21:20;27.83;;;12.90;;
17171;SDS011;8701;50.150;8.756;2022-12-18T19:25:23;30.17;;;13.90;;
17171;SDS011;8701;50.150;8.756;2022-12-18T19:29:30;28.73;;;13.17;;
17171;SDS011;8701;50.150;8.756;2022-12-18T19:33:33;29.27;;;12.97;;
17171;SDS011;8701;50.150;8.756;2022-12-18T19:37:37;28.40;;;13.57;;
17171;SDS011;8701;50.150;8.756;2022-12-18T19:41:40;28.80;;;13.50;;
17171;SDS011;8701;50.150;8.756;2022-12-18T19:45:44;29.43;;;14.37;;
17171;SDS011;8701;50.150;8.756;2022-12-18T19:49:46;30.07;;;13.97;;
17171;SDS011;8701;50.150;8.756;2022-12-18T19:53:49;28.23;;;14.07;;
17171;SDS011;8701;50.150;8.756;2022-12-18T19:57:52;29.20;;;14.67;;
17171;SDS011;8701;50.150;8.756;2022-12-18T20:01:56;33.13;;;14.23;;
17171;SDS011;8701;50.150;8.756;2022-12-18T20:06:06;31.00;;;13.80;;
17171;SDS011;8701;50.150;8.756;2022-12-18T20:10:12;27.37;;;13.70;;
17171;SDS011;8701;50.150;8.756;2022-12-18T20:14:16;31.80;;;14.00;;
17171;SDS011;8701;50.150;8.756;2022-12-18T20:18:20;29.13;;;14.50;;
17171;SDS011;8701;50.150;8.756;2022-12-18T20:22:26;25.13;;;13.60;;
17171;SDS011;8701;50.150;8.756;2022-12-18T20:26:32;26.53;;;13.27;;
17171;SDS011;8701;50.150;8.756;2022-12-18T20:30:35;31.50;;;13.70;;
17171;SDS011;8701;50.150;8.756;2022-12-18T20:34:40;31.20;;;14.93;;
17171;SDS011;8701;50.150;8.756;2022-12-18T20:43:03;27.60;;;13.27;;
17171;SDS011;8701;50.150;8.756;2022-12-18T20:47:07;27.57;;;13.97;;
17171;SDS011;8701;50.150;8.756;2022-12-18T20:51:13;25.97;;;13.93;;
17171;SDS011;8701;50.150;8.756;2022-12-18T20:55:22;26.40;;;14.30;;
17171;SDS011;8701;50.150;8.756;2022-12-18T20:59:31;29.83;;;14.10;;
17171;SDS011;8701;50.150;8.756;2022-12-18T21:03:43;30.70;;;13.90;;
17171;SDS011;8701;50.150;8.756;2022-12-18T21:07:52;26.27;;;13.80;;
17171;SDS011;8701;50.150;8.756;2022-12-18T21:20:45;25.93;;;12.97;;
17171;SDS011;8701;50.150;8.756;2022-12-18T21:24:55;24.57;;;13.20;;
17171;SDS011;8701;50.150;8.756;2022-12-18T21:29:00;27.23;;;13.90;;
17171;SDS011;8701;50.150;8.756;2022-12-18T21:33:08;28.23;;;13.90;;
17171;SDS011;8701;50.150;8.756;2022-12-18T21:37:12;29.10;;;12.70;;
17171;SDS011;8701;50.150;8.756;2022-12-18T21:41:22;24.97;;;12.77;;
17171;SDS011;8701;50.150;8.756;2022-12-18T21:45:44;28.90;;;13.63;;
17171;SDS011;8701;50.150;8.756;2022-12-18T21:49:56;23.90;;;13.50;;
17171;SDS011;8701;50.150;8.756;2022-12-18T21:53:59;29.00;;;12.10;;
17171;SDS011;8701;50.150;8.756;2022-12-18T21:58:06;24.87;;;13.30;;
17171;SDS011;8701;50.150;8.756;2022-12-18T22:02:21;27.63;;;13.37;;
17171;SDS011;8701;50.150;8.756;2022-12-18T22:06:31;26.73;;;13.30;;
17171;SDS011;8701;50.150;8.756;2022-12-18T22:10:33;26.20;;;13.53;;
17171;SDS011;8701;50.150;8.756;2022-12-18T22:14:39;24.37;;;12.33;;
17171;SDS011;8701;50.150;8.756;2022-12-18T22:18:42;27.77;;;13.40;;
17171;SDS011;8701;50.150;8.756;2022-12-18T22:22:44;24.60;;;13.00;;
17171;SDS011;8701;50.150;8.756;2022-12-18T22:26:48;31.30;;;13.13;;
17171;SDS011;8701;50.150;8.756;2022-12-18T22:30:53;25.40;;;12.90;;
17171;SDS011;8701;50.150;8.756;2022-12-18T22:35:07;27.23;;;13.00;;
17171;SDS011;8701;50.150;8.756;2022-12-18T22:39:11;25.00;;;12.80;;
17171;SDS011;8701;50.150;8.756;2022-12-18T22:43:16;26.70;;;13.37;;
17171;SDS011;8701;50.150;8.756;2022-12-18T22:47:21;28.50;;;13.60;;
17171;SDS011;8701;50.150;8.756;2022-12-18T22:51:25;31.80;;;13.50;;
17171;SDS011;8701;50.150;8.756;2022-12-18T22:55:28;24.60;;;13.13;;
17171;SDS011;8701;50.150;8.756;2022-12-18T22:59:31;25.50;;;13.47;;
17171;SDS011;8701;50.150;8.756;2022-12-18T23:03:34;28.53;;;13.70;;
17171;SDS011;8701;50.150;8.756;2022-12-18T23:07:37;27.77;;;13.20;;
17171;SDS011;8701;50.150;8.756;2022-12-18T23:11:39;26.23;;;13.40;;
17171;SDS011;8701;50.150;8.756;2022-12-18T23:15:43;28.13;;;13.67;;
17171;SDS011;8701;50.150;8.756;2022-12-18T23:19:48;30.50;;;14.20;;
17171;SDS011;8701;50.150;8.756;2022-12-18T23:23:51;32.33;;;14.53;;
17171;SDS011;8701;50.150;8.756;2022-12-18T23:27:53;27.47;;;13.40;;
17171;SDS011;8701;50.150;8.756;2022-12-18T23:31:56;25.50;;;12.53;;
17171;SDS011;8701;50.150;8.756;2022-12-18T23:36:01;23.93;;;12.63;;
17171;SDS011;8701;50.150;8.756;2022-12-18T23:40:04;28.47;;;12.80;;
17171;SDS011;8701;50.150;8.756;2022-12-18T23:44:11;31.73;;;13.90;;
17171;SDS011;8701;50.150;8.756;2022-12-18T23:48:14;26.70;;;13.63;;
17171;SDS011;8701;50.150;8.756;2022-12-18T23:52:19;30.10;;;14.40;;
17171;SDS011;8701;50.150;8.756;2022-12-18T23:56:21;26.77;;;14.10;;
